Chuuk, Chuuk International Airport (PTKK)

NameChuuk International Airport
CityChuuk
CountryMicronesia
ICAOPTKK
IATATKK
Altitude3 m
CoordinatesGoogle Map
Live Air TrafficLiveATC.net
METARPTKK 251655Z VRB05KT 15SM SCT014CB BKN120 OVC280 28/25 A2983 RMK SHRAB10E25 CB ALQDS SLP105 T02760248
2019-03-25 16:55:00 Wind: North (0°) 2.57 m/s - Visibility: 24140.1 m - Temperature: 28 °C - Dew point: 25 °C - Humidity: 83.8% - Pressure: 1010.16 hPa

Sorry, no flights used the airport in this database.